createdAt,value
2022-12-02T00:01:16.162Z,21.37
2022-12-02T00:03:43.458Z,21.50
2022-12-02T00:06:26.358Z,21.33
2022-12-02T00:08:54.720Z,21.33
2022-12-02T00:11:31.496Z,21.87
2022-12-02T00:14:00.231Z,21.27
2022-12-02T00:16:27.589Z,21.77
2022-12-02T00:18:55.192Z,20.37
2022-12-02T00:21:22.851Z,22.43
2022-12-02T00:23:49.953Z,21.37
2022-12-02T00:26:17.350Z,21.10
2022-12-02T00:28:44.671Z,19.60
2022-12-02T00:31:11.823Z,20.90
2022-12-02T00:33:39.098Z,22.03
2022-12-02T00:36:06.473Z,20.23
2022-12-02T00:38:33.563Z,20.90
2022-12-02T00:41:00.850Z,21.53
2022-12-02T00:43:46.513Z,22.50
2022-12-02T00:46:32.304Z,19.03
2022-12-02T00:49:09.516Z,21.03
2022-12-02T00:51:37.135Z,21.60
2022-12-02T00:54:04.993Z,22.90
2022-12-02T00:56:32.508Z,20.70
2022-12-02T00:58:59.884Z,21.13
2022-12-02T01:01:27.066Z,22.50
2022-12-02T01:03:54.163Z,22.23
2022-12-02T01:06:21.519Z,21.13
2022-12-02T01:08:48.935Z,21.90
2022-12-02T01:11:16.218Z,20.90
2022-12-02T01:13:43.549Z,21.57
2022-12-02T01:16:10.821Z,22.97
2022-12-02T01:18:38.003Z,19.87
2022-12-02T01:21:05.069Z,20.93
2022-12-02T01:23:32.252Z,21.87
2022-12-02T01:25:59.333Z,19.30
2022-12-02T01:28:26.490Z,22.03
2022-12-02T01:30:53.691Z,22.13
2022-12-02T01:33:21.030Z,20.90
2022-12-02T01:35:48.323Z,22.60
2022-12-02T01:38:15.480Z,20.27
2022-12-02T01:40:42.627Z,22.43
2022-12-02T01:43:09.904Z,23.17
2022-12-02T01:45:37.099Z,23.13
2022-12-02T01:48:04.238Z,23.23
2022-12-02T01:50:31.808Z,22.17
2022-12-02T01:52:59.272Z,21.53
2022-12-02T01:55:27.089Z,23.60
2022-12-02T01:57:54.379Z,24.10
2022-12-02T02:00:21.685Z,23.33
2022-12-02T02:02:48.929Z,23.70
2022-12-02T02:05:16.021Z,21.23
2022-12-02T02:07:43.626Z,23.57
2022-12-02T02:10:10.917Z,23.07
2022-12-02T02:12:38.123Z,21.80
2022-12-02T02:15:07.033Z,23.73
2022-12-02T02:17:34.258Z,21.50
2022-12-02T02:20:02.393Z,23.30
2022-12-02T02:22:44.766Z,23.20
2022-12-02T02:25:18.852Z,23.80
2022-12-02T02:27:54.677Z,20.90
2022-12-02T02:30:22.011Z,22.53
2022-12-02T02:32:49.797Z,21.93
2022-12-02T02:35:17.516Z,21.47
2022-12-02T02:37:44.699Z,21.37
2022-12-02T02:40:12.616Z,22.10
2022-12-02T02:42:39.718Z,23.07
2022-12-02T02:45:07.658Z,22.50
2022-12-02T02:47:34.764Z,23.00
2022-12-02T02:50:02.071Z,22.23
2022-12-02T02:52:29.238Z,23.43
2022-12-02T02:54:56.629Z,23.27
2022-12-02T02:57:23.749Z,21.90
2022-12-02T02:59:51.682Z,21.70
2022-12-02T03:02:18.947Z,21.97
2022-12-02T03:04:46.340Z,20.90
2022-12-02T03:07:13.607Z,22.03
2022-12-02T03:09:40.781Z,21.67
2022-12-02T03:12:08.029Z,21.73
2022-12-02T03:14:35.243Z,21.43
2022-12-02T03:17:02.749Z,20.87
2022-12-02T03:19:30.961Z,22.03
2022-12-02T03:21:58.279Z,22.97
2022-12-02T03:24:25.579Z,21.27
2022-12-02T03:26:52.682Z,21.73
2022-12-02T03:29:20.527Z,20.43
2022-12-02T03:31:47.630Z,21.37
2022-12-02T03:34:14.836Z,20.60
2022-12-02T03:36:42.405Z,20.83
2022-12-02T03:39:10.462Z,22.73
2022-12-02T03:41:38.165Z,23.63
2022-12-02T03:44:05.561Z,21.03
2022-12-02T03:46:32.861Z,20.70
2022-12-02T03:49:00.526Z,23.63
2022-12-02T03:51:27.723Z,22.93
2022-12-02T03:53:54.924Z,21.70
2022-12-02T03:56:22.009Z,22.47
2022-12-02T03:58:50.818Z,21.30
2022-12-02T04:01:18.268Z,21.37
2022-12-02T04:03:45.438Z,21.63
2022-12-02T04:06:13.130Z,22.30
2022-12-02T04:08:40.288Z,20.87
2022-12-02T04:11:07.516Z,20.33
2022-12-02T04:13:34.706Z,21.93
2022-12-02T04:16:01.874Z,31.80
2022-12-02T04:18:29.493Z,25.87
2022-12-02T04:20:57.065Z,22.47
2022-12-02T04:23:24.471Z,19.87
2022-12-02T04:25:51.792Z,21.87
2022-12-02T04:28:18.960Z,20.17
2022-12-02T04:30:46.210Z,21.00
2022-12-02T04:33:13.351Z,21.70
2022-12-02T04:35:40.519Z,21.57
2022-12-02T04:38:11.971Z,20.83
2022-12-02T04:40:39.770Z,19.77
2022-12-02T04:43:07.159Z,22.20
2022-12-02T04:45:34.363Z,21.90
2022-12-02T04:48:01.707Z,20.07
2022-12-02T04:50:28.938Z,20.77
2022-12-02T04:52:56.312Z,19.23
2022-12-02T04:55:23.455Z,20.77
2022-12-02T04:57:50.692Z,20.87
2022-12-02T05:00:18.031Z,21.47
2022-12-02T05:02:45.339Z,21.13
2022-12-02T05:05:13.003Z,19.50
2022-12-02T05:07:40.195Z,20.47
2022-12-02T05:10:08.186Z,21.13
2022-12-02T05:12:35.332Z,20.50
2022-12-02T05:15:02.469Z,22.33
2022-12-02T05:17:31.053Z,21.73
2022-12-02T05:19:58.299Z,21.40
2022-12-02T05:22:25.410Z,20.53
2022-12-02T05:24:52.752Z,22.90
2022-12-02T05:27:20.511Z,21.27
2022-12-02T05:29:47.660Z,21.50
2022-12-02T05:32:14.785Z,21.00
2022-12-02T05:34:41.998Z,22.67
2022-12-02T05:37:09.213Z,20.97
2022-12-02T05:39:36.512Z,22.57
2022-12-02T05:42:06.768Z,21.93
2022-12-02T05:44:39.430Z,20.77
2022-12-02T05:47:10.539Z,19.63
2022-12-02T05:49:37.707Z,23.10
2022-12-02T05:52:13.771Z,19.07
2022-12-02T05:54:40.828Z,16.97
2022-12-02T05:57:07.999Z,21.50
2022-12-02T05:59:35.289Z,21.87
2022-12-02T06:02:02.561Z,22.40
2022-12-02T06:04:32.107Z,23.33
2022-12-02T06:07:05.624Z,24.37
2022-12-02T06:09:33.004Z,21.80
2022-12-02T06:12:01.149Z,21.60
2022-12-02T06:14:37.310Z,22.57
2022-12-02T06:17:15.979Z,20.73
2022-12-02T06:19:54.021Z,23.43
2022-12-02T06:22:25.041Z,21.93
2022-12-02T06:24:54.192Z,22.53
2022-12-02T06:27:23.047Z,23.13
2022-12-02T06:29:58.394Z,21.93
2022-12-02T06:32:29.381Z,34.20
2022-12-02T06:34:56.517Z,25.43
2022-12-02T06:37:25.375Z,22.23
2022-12-02T06:40:26.534Z,24.63
2022-12-02T06:42:42.929Z,24.03
2022-12-02T06:45:18.984Z,22.70
2022-12-02T06:48:04.740Z,23.00
2022-12-02T06:50:41.825Z,21.73
2022-12-02T06:53:33.136Z,23.43
2022-12-02T06:56:27.582Z,23.83
2022-12-02T06:59:02.863Z,23.37
2022-12-02T07:01:34.781Z,21.70
2022-12-02T07:04:02.088Z,23.93
2022-12-02T07:06:29.935Z,23.00
2022-12-02T07:08:58.462Z,21.37
2022-12-02T07:11:54.190Z,21.17
2022-12-02T07:14:48.695Z,24.27
2022-12-02T07:17:22.428Z,22.80
2022-12-02T07:19:55.526Z,21.43
2022-12-02T07:22:24.273Z,21.53
2022-12-02T07:25:25.083Z,21.30
2022-12-02T07:27:52.201Z,25.47
2022-12-02T07:30:33.563Z,41.40
2022-12-02T07:33:01.006Z,25.20
2022-12-02T07:35:28.236Z,27.73
2022-12-02T07:37:55.819Z,26.47
2022-12-02T07:40:22.958Z,28.37
2022-12-02T07:42:50.425Z,25.07
2022-12-02T07:45:19.186Z,22.83
2022-12-02T07:47:46.410Z,24.73
2022-12-02T07:50:14.675Z,26.80
2022-12-02T07:52:41.902Z,25.73
2022-12-02T07:55:09.509Z,24.50
2022-12-02T07:57:36.684Z,24.77
2022-12-02T08:00:05.992Z,23.60
2022-12-02T08:02:33.055Z,23.20
2022-12-02T08:05:00.348Z,23.93
2022-12-02T08:07:27.572Z,21.10
2022-12-02T08:09:54.865Z,24.80
2022-12-02T08:12:22.442Z,23.97
2022-12-02T08:14:49.984Z,25.60
2022-12-02T08:17:17.324Z,25.33
2022-12-02T08:19:44.392Z,24.70
2022-12-02T08:22:11.650Z,23.27
2022-12-02T08:24:38.884Z,24.83
2022-12-02T08:27:05.989Z,25.30
2022-12-02T08:29:34.556Z,26.03
2022-12-02T08:32:01.852Z,28.83
2022-12-02T08:34:29.039Z,22.67
2022-12-02T08:36:56.184Z,23.23
2022-12-02T08:39:23.355Z,27.17
2022-12-02T08:41:50.449Z,26.43
2022-12-02T08:44:17.770Z,21.33
2022-12-02T08:46:49.540Z,23.33
2022-12-02T08:49:19.840Z,23.80
2022-12-02T08:51:47.033Z,22.60
2022-12-02T08:54:15.415Z,23.50
2022-12-02T08:56:46.759Z,22.40
2022-12-02T08:59:13.907Z,24.60
2022-12-02T09:01:41.118Z,22.67
2022-12-02T09:04:08.461Z,20.73
2022-12-02T09:06:36.510Z,20.60
2022-12-02T09:09:04.998Z,18.67
2022-12-02T09:11:32.351Z,19.40
2022-12-02T09:13:59.487Z,20.70
2022-12-02T09:16:26.651Z,21.60
2022-12-02T09:18:56.165Z,21.83
2022-12-02T09:21:23.409Z,20.03
2022-12-02T09:23:51.063Z,20.53
2022-12-02T09:26:19.061Z,20.03
2022-12-02T09:28:47.584Z,19.93
2022-12-02T09:31:15.194Z,19.63
2022-12-02T09:33:42.444Z,20.87
2022-12-02T09:36:09.657Z,21.17
2022-12-02T09:38:37.258Z,21.53
2022-12-02T09:41:04.510Z,18.30
2022-12-02T09:43:31.726Z,19.73
2022-12-02T09:45:59.025Z,21.40
2022-12-02T09:48:26.371Z,19.83
2022-12-02T09:50:53.529Z,22.67
2022-12-02T09:53:20.815Z,20.53
2022-12-02T09:55:48.021Z,21.13
2022-12-02T09:58:17.124Z,21.17
2022-12-02T10:00:44.895Z,19.53
2022-12-02T10:03:18.440Z,19.40
2022-12-02T10:05:46.285Z,19.60
2022-12-02T10:08:24.355Z,20.10
2022-12-02T10:10:51.498Z,18.83
2022-12-02T10:13:19.611Z,19.33
2022-12-02T10:15:47.067Z,18.13
2022-12-02T10:18:19.488Z,19.77
2022-12-02T10:20:47.044Z,21.90
2022-12-02T10:23:23.822Z,19.33
2022-12-02T10:25:54.637Z,18.43
2022-12-02T10:28:27.365Z,17.77
2022-12-02T10:31:05.587Z,17.17
2022-12-02T10:33:34.536Z,18.97
2022-12-02T10:36:01.821Z,19.90
2022-12-02T10:38:30.105Z,19.87
2022-12-02T10:41:15.493Z,18.93
2022-12-02T10:43:43.833Z,17.50
2022-12-02T10:46:16.895Z,19.40
2022-12-02T10:48:44.145Z,18.60
2022-12-02T10:51:17.535Z,21.10
2022-12-02T10:53:45.310Z,18.17
2022-12-02T10:56:19.953Z,19.63
2022-12-02T10:58:48.083Z,20.13
2022-12-02T11:01:15.329Z,19.77
2022-12-02T11:03:42.725Z,19.43
2022-12-02T11:06:20.511Z,20.37
2022-12-02T11:08:48.613Z,19.00
2022-12-02T11:11:38.163Z,19.63
2022-12-02T11:14:15.601Z,22.00
2022-12-02T11:16:53.668Z,20.57
2022-12-02T11:19:41.000Z,20.90
2022-12-02T11:22:46.531Z,18.97
2022-12-02T11:25:44.390Z,21.30
2022-12-02T11:28:29.962Z,18.97
2022-12-02T11:31:14.880Z,20.43
2022-12-02T11:33:59.927Z,19.23
2022-12-02T11:36:31.318Z,20.87
2022-12-02T11:39:04.641Z,18.53
2022-12-02T11:41:54.336Z,19.07
2022-12-02T11:44:22.342Z,18.67
2022-12-02T11:46:59.987Z,20.33
2022-12-02T11:49:42.874Z,19.83
2022-12-02T11:52:09.942Z,19.60
2022-12-02T11:55:01.189Z,20.60
2022-12-02T11:57:30.035Z,18.67
2022-12-02T11:59:58.121Z,20.13
2022-12-02T12:02:26.197Z,17.43
2022-12-02T12:05:06.848Z,20.73
2022-12-02T12:07:50.698Z,22.03
2022-12-02T12:10:32.052Z,22.10
2022-12-02T12:13:24.385Z,23.40
2022-12-02T12:15:56.434Z,21.63
2022-12-02T12:18:39.415Z,21.67
2022-12-02T12:21:07.220Z,22.17
2022-12-02T12:23:43.004Z,21.47
2022-12-02T12:26:29.897Z,20.53
2022-12-02T12:28:58.372Z,22.87
2022-12-02T12:31:25.742Z,23.13
2022-12-02T12:33:53.269Z,21.07
2022-12-02T12:36:20.428Z,23.03
2022-12-02T12:38:47.566Z,22.73
2022-12-02T12:41:16.794Z,20.03
2022-12-02T12:43:53.211Z,24.30
2022-12-02T12:46:20.454Z,22.17
2022-12-02T12:48:47.600Z,22.70
2022-12-02T12:51:15.099Z,21.80
2022-12-02T12:53:42.319Z,22.80
2022-12-02T12:56:09.526Z,23.80
2022-12-02T12:58:36.901Z,22.67
2022-12-02T13:01:04.523Z,19.97
2022-12-02T13:03:31.667Z,21.30
2022-12-02T13:05:58.917Z,24.00
2022-12-02T13:08:25.921Z,22.00
2022-12-02T13:10:53.129Z,22.07
2022-12-02T13:13:20.318Z,23.43
2022-12-02T13:15:48.095Z,24.80
2022-12-02T13:18:15.169Z,21.63
2022-12-02T13:20:42.462Z,22.13
2022-12-02T13:23:09.554Z,21.00
2022-12-02T13:25:37.008Z,23.43
2022-12-02T13:28:04.132Z,22.73
2022-12-02T13:30:31.210Z,22.90
2022-12-02T13:32:58.275Z,22.70
2022-12-02T13:35:25.820Z,22.80
2022-12-02T13:37:52.842Z,22.70
2022-12-02T13:40:19.917Z,23.27
2022-12-02T13:42:47.063Z,27.07
2022-12-02T13:45:14.157Z,23.30
2022-12-02T13:47:41.305Z,24.70
2022-12-02T13:50:08.874Z,21.80
2022-12-02T13:52:36.524Z,21.47
2022-12-02T13:55:03.649Z,23.77
2022-12-02T13:57:30.743Z,22.60
2022-12-02T13:59:57.733Z,22.57
2022-12-02T14:02:24.828Z,21.63
2022-12-02T14:04:52.248Z,21.50
2022-12-02T14:07:19.495Z,23.33
2022-12-02T14:09:46.572Z,21.23
2022-12-02T14:12:14.770Z,21.00
2022-12-02T14:14:41.856Z,19.80
2022-12-02T14:17:09.551Z,19.80
2022-12-02T14:19:36.824Z,20.13
2022-12-02T14:22:03.945Z,19.50
2022-12-02T14:24:31.072Z,18.37
2022-12-02T14:26:58.234Z,18.43
2022-12-02T14:29:25.323Z,19.80
2022-12-02T14:31:52.687Z,18.80
2022-12-02T14:34:20.132Z,18.87
2022-12-02T14:36:47.285Z,18.10
2022-12-02T14:39:14.561Z,17.90
2022-12-02T14:41:41.977Z,17.83
2022-12-02T14:44:09.141Z,18.67
2022-12-02T14:46:36.697Z,17.43
2022-12-02T14:49:36.941Z,18.63
2022-12-02T14:51:51.534Z,18.53
2022-12-02T14:54:18.883Z,17.57
2022-12-02T14:56:45.877Z,17.03
2022-12-02T14:59:15.207Z,17.97
2022-12-02T15:01:42.817Z,18.67
2022-12-02T15:04:09.954Z,16.43
2022-12-02T15:06:37.051Z,17.87
2022-12-02T15:09:04.916Z,17.97
2022-12-02T15:11:32.131Z,17.60
2022-12-02T15:13:59.187Z,18.80
2022-12-02T15:16:26.458Z,25.20
2022-12-02T15:18:53.665Z,27.40
2022-12-02T15:21:20.998Z,23.53
2022-12-02T15:23:48.327Z,20.17
2022-12-02T15:26:15.439Z,22.77
2022-12-02T15:28:42.540Z,21.73
2022-12-02T15:31:09.731Z,26.63
2022-12-02T15:33:37.094Z,24.33
2022-12-02T15:36:04.282Z,28.20
2022-12-02T15:38:33.152Z,24.17
2022-12-02T15:41:00.712Z,22.57
2022-12-02T15:43:27.888Z,20.73
2022-12-02T15:45:55.094Z,22.60
2022-12-02T15:48:22.157Z,22.33
2022-12-02T15:50:54.709Z,26.03
2022-12-02T15:53:22.798Z,22.57
2022-12-02T15:55:50.847Z,17.77
2022-12-02T15:58:18.455Z,16.40
2022-12-02T16:00:45.790Z,17.30
2022-12-02T16:03:12.912Z,17.57
2022-12-02T16:05:40.112Z,16.57
2022-12-02T16:08:07.572Z,19.00
2022-12-02T16:10:35.523Z,16.10
2022-12-02T16:13:03.157Z,16.40
2022-12-02T16:15:30.530Z,15.87
2022-12-02T16:17:57.708Z,16.67
2022-12-02T16:20:24.905Z,15.70
2022-12-02T16:22:52.230Z,17.03
2022-12-02T16:25:19.464Z,14.93
2022-12-02T16:27:46.661Z,15.87
2022-12-02T16:30:14.224Z,16.60
2022-12-02T16:32:41.356Z,16.10
2022-12-02T16:35:08.938Z,16.97
2022-12-02T16:37:36.041Z,17.37
2022-12-02T16:40:03.185Z,15.57
2022-12-02T16:42:30.398Z,15.67
2022-12-02T16:44:58.062Z,16.23
2022-12-02T16:47:25.559Z,15.63
2022-12-02T16:49:52.713Z,17.13
2022-12-02T16:52:19.888Z,15.87
2022-12-02T16:54:47.007Z,15.77
2022-12-02T16:57:14.132Z,15.87
2022-12-02T16:59:41.665Z,16.43
2022-12-02T17:02:10.367Z,15.63
2022-12-02T17:04:37.715Z,15.90
2022-12-02T17:07:04.976Z,16.37
2022-12-02T17:09:32.425Z,15.63
2022-12-02T17:11:59.829Z,16.43
2022-12-02T17:14:27.284Z,15.50
2022-12-02T17:16:54.403Z,16.13
2022-12-02T17:19:21.760Z,14.67
2022-12-02T17:21:49.180Z,16.37
2022-12-02T17:24:16.302Z,15.63
2022-12-02T17:26:43.440Z,16.30
2022-12-02T17:29:10.817Z,14.33
2022-12-02T17:31:37.875Z,15.60
2022-12-02T17:34:05.024Z,16.47
2022-12-02T17:36:32.124Z,16.73
2022-12-02T17:38:59.161Z,14.83
2022-12-02T17:41:26.681Z,14.63
2022-12-02T17:43:54.008Z,15.00
2022-12-02T17:46:21.232Z,15.93
2022-12-02T17:48:49.234Z,15.93
2022-12-02T17:51:19.335Z,15.50
2022-12-02T17:53:46.456Z,14.83
2022-12-02T17:56:13.574Z,14.90
2022-12-02T17:58:40.685Z,15.10
2022-12-02T18:01:11.986Z,16.23
2022-12-02T18:03:40.053Z,17.10
2022-12-02T18:06:07.814Z,18.23
2022-12-02T18:08:35.168Z,16.03
2022-12-02T18:11:02.544Z,18.33
2022-12-02T18:13:30.300Z,16.73
2022-12-02T18:15:57.504Z,15.93
2022-12-02T18:18:24.740Z,17.53
2022-12-02T18:20:51.969Z,15.80
2022-12-02T18:23:20.768Z,14.70
2022-12-02T18:25:50.889Z,14.83
2022-12-02T18:28:18.096Z,13.67
2022-12-02T18:30:45.443Z,14.63
2022-12-02T18:33:12.653Z,15.70
2022-12-02T18:35:39.804Z,12.60
2022-12-02T18:38:06.806Z,13.57
2022-12-02T18:40:33.926Z,15.17
2022-12-02T18:43:01.112Z,13.93
2022-12-02T18:45:28.263Z,15.30
2022-12-02T18:47:55.416Z,14.33
2022-12-02T18:50:22.914Z,15.03
2022-12-02T18:52:49.990Z,13.43
2022-12-02T18:55:17.352Z,13.37
2022-12-02T18:57:44.798Z,14.50
2022-12-02T19:00:13.400Z,12.77
2022-12-02T19:02:40.823Z,12.30
2022-12-02T19:05:08.579Z,13.23
2022-12-02T19:07:36.442Z,12.60
2022-12-02T19:10:04.337Z,13.77
2022-12-02T19:12:31.417Z,13.60
2022-12-02T19:14:58.555Z,14.07
2022-12-02T19:17:25.906Z,13.40
2022-12-02T19:19:52.969Z,14.07
2022-12-02T19:22:20.522Z,12.07
2022-12-02T19:24:47.840Z,23.07
2022-12-02T19:27:34.464Z,12.37
2022-12-02T19:30:01.945Z,11.43
2022-12-02T19:32:29.227Z,13.07
2022-12-02T19:34:56.279Z,12.33
2022-12-02T19:37:23.582Z,14.07
2022-12-02T19:39:51.296Z,13.43
2022-12-02T19:42:18.850Z,15.10
2022-12-02T19:44:45.980Z,15.70
2022-12-02T19:47:13.058Z,30.63
2022-12-02T19:49:40.171Z,23.93
2022-12-02T19:52:07.406Z,17.57
2022-12-02T19:54:34.451Z,13.40
2022-12-02T19:57:01.567Z,14.40
2022-12-02T19:59:28.670Z,12.83
2022-12-02T20:01:55.893Z,14.87
2022-12-02T20:04:40.939Z,16.90
2022-12-02T20:07:09.680Z,18.03
2022-12-02T20:09:36.799Z,18.30
2022-12-02T20:12:04.006Z,14.20
2022-12-02T20:14:31.070Z,15.17
2022-12-02T20:16:58.143Z,18.23
2022-12-02T20:19:25.295Z,18.87
2022-12-02T20:21:52.506Z,20.90
2022-12-02T20:24:19.688Z,20.77
2022-12-02T20:26:46.936Z,20.90
2022-12-02T20:29:13.995Z,21.10
2022-12-02T20:31:41.128Z,20.83
2022-12-02T20:34:08.553Z,20.60
2022-12-02T20:36:35.893Z,22.27
2022-12-02T20:39:03.044Z,20.97
2022-12-02T20:41:30.227Z,22.73
2022-12-02T20:43:57.649Z,21.13
2022-12-02T20:46:24.824Z,21.43
2022-12-02T20:48:52.119Z,20.60
2022-12-02T20:51:19.298Z,19.40
2022-12-02T20:53:46.457Z,16.37
2022-12-02T20:56:13.588Z,17.40
2022-12-02T20:58:40.632Z,20.53
2022-12-02T21:01:12.315Z,18.13
2022-12-02T21:03:40.313Z,21.67
2022-12-02T21:06:08.012Z,13.97
2022-12-02T21:08:35.319Z,14.50
2022-12-02T21:11:02.595Z,18.37
2022-12-02T21:13:29.869Z,18.23
2022-12-02T21:15:57.087Z,21.80
2022-12-02T21:18:25.505Z,19.83
2022-12-02T21:20:52.968Z,21.80
2022-12-02T21:23:20.134Z,19.03
2022-12-02T21:25:47.717Z,18.70
2022-12-02T21:28:14.862Z,21.13
2022-12-02T21:30:42.901Z,20.17
2022-12-02T21:33:10.222Z,16.20
2022-12-02T21:35:37.363Z,14.47
2022-12-02T21:38:04.556Z,14.23
2022-12-02T21:40:31.771Z,15.23
2022-12-02T21:42:58.989Z,13.07
2022-12-02T21:45:26.231Z,13.50
2022-12-02T21:47:53.549Z,11.97
2022-12-02T21:50:20.915Z,13.10
2022-12-02T21:52:48.220Z,11.13
2022-12-02T21:55:15.469Z,12.87
2022-12-02T21:57:42.804Z,13.83
2022-12-02T22:00:10.416Z,12.60
2022-12-02T22:02:37.461Z,11.93
2022-12-02T22:05:04.848Z,12.60
2022-12-02T22:07:41.073Z,12.67
2022-12-02T22:10:19.620Z,13.57
2022-12-02T22:12:47.091Z,13.00
2022-12-02T22:15:14.822Z,12.17
2022-12-02T22:17:42.156Z,13.47
2022-12-02T22:20:09.617Z,13.07
2022-12-02T22:22:36.701Z,14.53
2022-12-02T22:25:04.268Z,14.13
2022-12-02T22:27:31.412Z,13.97
2022-12-02T22:29:58.640Z,13.13
2022-12-02T22:32:25.723Z,14.33
2022-12-02T22:34:52.967Z,14.57
2022-12-02T22:37:20.225Z,13.33
2022-12-02T22:39:47.470Z,16.50
2022-12-02T22:42:14.500Z,13.33
2022-12-02T22:44:41.501Z,13.23
2022-12-02T22:47:08.713Z,13.30
2022-12-02T22:49:35.933Z,13.57
2022-12-02T22:52:03.101Z,13.63
2022-12-02T22:54:30.349Z,13.30
2022-12-02T22:56:57.525Z,11.47
2022-12-02T22:59:24.500Z,13.03
2022-12-02T23:01:51.664Z,12.13
2022-12-02T23:04:18.961Z,12.83
2022-12-02T23:06:46.063Z,12.53
2022-12-02T23:09:13.275Z,13.37
2022-12-02T23:11:40.504Z,12.37
2022-12-02T23:14:07.985Z,13.87
2022-12-02T23:16:35.110Z,13.47
2022-12-02T23:19:02.368Z,13.67
2022-12-02T23:21:29.482Z,13.60
2022-12-02T23:23:56.855Z,13.33
2022-12-02T23:26:24.181Z,13.53
2022-12-02T23:28:51.302Z,13.20
2022-12-02T23:31:18.602Z,12.27
2022-12-02T23:33:46.128Z,12.67
2022-12-02T23:36:13.486Z,12.00
2022-12-02T23:38:40.907Z,13.50
2022-12-02T23:41:08.220Z,12.30
2022-12-02T23:43:35.291Z,13.50
2022-12-02T23:46:02.603Z,12.70
2022-12-02T23:48:29.866Z,12.47
2022-12-02T23:50:56.977Z,14.17
2022-12-02T23:53:24.421Z,13.47
2022-12-02T23:55:52.322Z,13.87
2022-12-02T23:58:19.632Z,13.43
